sensor_id;sensor_type;location;lat;lon;timestamp;pressure;altitude;pressure_sealevel;temperature;humidity
27040;BME280;14589;51.578;7.306;2023-04-26T04:00:37;101366.16;;;1.06;85.22
27040;BME280;14589;51.578;7.306;2023-04-26T04:03:08;101369.06;;;1.02;86.08
27040;BME280;14589;51.578;7.306;2023-04-26T04:05:38;101366.56;;;0.99;85.76
27040;BME280;14589;51.578;7.306;2023-04-26T04:08:08;101372.72;;;0.99;85.40
27040;BME280;14589;51.578;7.306;2023-04-26T04:10:39;101361.41;;;0.94;85.95
27040;BME280;14589;51.578;7.306;2023-04-26T04:13:12;101359.78;;;0.92;86.19
27040;BME280;14589;51.578;7.306;2023-04-26T04:15:43;101361.47;;;0.93;86.01
27040;BME280;14589;51.578;7.306;2023-04-26T04:18:13;101360.47;;;0.95;86.29
27040;BME280;14589;51.578;7.306;2023-04-26T04:20:44;101369.28;;;0.97;86.19
27040;BME280;14589;51.578;7.306;2023-04-26T04:23:16;101374.75;;;0.94;86.32
27040;BME280;14589;51.578;7.306;2023-04-26T04:25:46;101369.28;;;0.97;85.96
27040;BME280;14589;51.578;7.306;2023-04-26T04:28:19;101360.53;;;0.94;86.39
27040;BME280;14589;51.578;7.306;2023-04-26T04:30:49;101362.34;;;0.93;86.69
27040;BME280;14589;51.578;7.306;2023-04-26T04:33:20;101375.56;;;0.96;86.97
27040;BME280;14589;51.578;7.306;2023-04-26T04:35:51;101373.75;;;0.97;87.11
27040;BME280;14589;51.578;7.306;2023-04-26T04:38:21;101372.25;;;0.91;87.24
27040;BME280;14589;51.578;7.306;2023-04-26T04:40:53;101379.97;;;0.97;86.94
27040;BME280;14589;51.578;7.306;2023-04-26T04:43:23;101379.97;;;0.97;87.62
27040;BME280;14589;51.578;7.306;2023-04-26T04:45:54;101384.38;;;0.98;87.11
27040;BME280;14589;51.578;7.306;2023-04-26T04:48:24;101376.44;;;0.97;87.20
27040;BME280;14589;51.578;7.306;2023-04-26T04:50:56;101384.16;;;1.03;87.08
27040;BME280;14589;51.578;7.306;2023-04-26T04:53:27;101381.41;;;1.04;86.36
27040;BME280;14589;51.578;7.306;2023-04-26T04:55:58;101385.50;;;1.11;86.38
27040;BME280;14589;51.578;7.306;2023-04-26T04:58:28;101388.03;;;1.14;87.12
27040;BME280;14589;51.578;7.306;2023-04-26T05:00:59;101390.41;;;1.20;86.75
27040;BME280;14589;51.578;7.306;2023-04-26T05:03:32;101381.97;;;1.30;86.90
27040;BME280;14589;51.578;7.306;2023-04-26T05:06:04;101378.06;;;1.37;86.96
27040;BME280;14589;51.578;7.306;2023-04-26T05:08:35;101389.94;;;1.48;86.75
27040;BME280;14589;51.578;7.306;2023-04-26T05:11:08;101390.38;;;1.58;86.60
27040;BME280;14589;51.578;7.306;2023-04-26T05:13:38;101382.91;;;1.65;86.41
27040;BME280;14589;51.578;7.306;2023-04-26T05:16:12;101396.53;;;1.77;86.32
27040;BME280;14589;51.578;7.306;2023-04-26T05:18:43;101389.16;;;1.82;86.23
27040;BME280;14589;51.578;7.306;2023-04-26T05:21:14;101398.34;;;1.94;86.15
27040;BME280;14589;51.578;7.306;2023-04-26T05:23:45;101390.03;;;2.00;86.34
27040;BME280;14589;51.578;7.306;2023-04-26T05:26:16;101408.06;;;2.14;86.10
27040;BME280;14589;51.578;7.306;2023-04-26T05:28:55;101407.50;;;2.24;86.08
27040;BME280;14589;51.578;7.306;2023-04-26T05:31:37;101416.69;;;2.36;86.16
27040;BME280;14589;51.578;7.306;2023-04-26T05:34:13;101409.06;;;2.46;85.99
27040;BME280;14589;51.578;7.306;2023-04-26T05:36:44;101404.16;;;2.54;85.86
27040;BME280;14589;51.578;7.306;2023-04-26T05:39:15;101397.72;;;2.58;85.92
27040;BME280;14589;51.578;7.306;2023-04-26T05:41:46;101407.69;;;2.71;86.04
27040;BME280;14589;51.578;7.306;2023-04-26T05:44:16;101409.06;;;2.78;85.83
27040;BME280;14589;51.578;7.306;2023-04-26T05:46:47;101414.88;;;2.87;85.48
27040;BME280;14589;51.578;7.306;2023-04-26T05:49:18;101408.94;;;2.97;85.60
27040;BME280;14589;51.578;7.306;2023-04-26T05:51:48;101418.97;;;3.09;85.45
27040;BME280;14589;51.578;7.306;2023-04-26T05:54:19;101415.00;;;3.16;85.87
27040;BME280;14589;51.578;7.306;2023-04-26T05:56:49;101421.41;;;3.30;85.66
27040;BME280;14589;51.578;7.306;2023-04-26T05:59:20;101435.09;;;3.41;85.33
27040;BME280;14589;51.578;7.306;2023-04-26T06:01:51;101424.13;;;3.45;85.21
27040;BME280;14589;51.578;7.306;2023-04-26T06:04:24;101424.72;;;3.50;85.13
27040;BME280;14589;51.578;7.306;2023-04-26T06:07:06;101425.75;;;3.63;84.53
27040;BME280;14589;51.578;7.306;2023-04-26T06:09:37;101429.63;;;3.74;84.42
27040;BME280;14589;51.578;7.306;2023-04-26T06:12:07;101422.19;;;3.79;84.61
27040;BME280;14589;51.578;7.306;2023-04-26T06:14:42;101438.72;;;3.87;84.18
27040;BME280;14589;51.578;7.306;2023-04-26T06:17:18;101433.50;;;3.99;84.12
27040;BME280;14589;51.578;7.306;2023-04-26T06:19:49;101425.16;;;4.04;83.89
27040;BME280;14589;51.578;7.306;2023-04-26T06:22:20;101425.31;;;4.17;83.63
27040;BME280;14589;51.578;7.306;2023-04-26T06:24:50;101443.19;;;4.32;83.46
27040;BME280;14589;51.578;7.306;2023-04-26T06:27:21;101438.91;;;4.43;83.59
27040;BME280;14589;51.578;7.306;2023-04-26T06:29:53;101437.97;;;4.59;83.48
27040;BME280;14589;51.578;7.306;2023-04-26T06:32:25;101448.28;;;4.80;83.28
27040;BME280;14589;51.578;7.306;2023-04-26T06:34:55;101440.53;;;5.04;83.51
27040;BME280;14589;51.578;7.306;2023-04-26T06:37:27;101447.72;;;5.18;81.77
27040;BME280;14589;51.578;7.306;2023-04-26T06:39:58;101439.44;;;5.35;81.49
27040;BME280;14589;51.578;7.306;2023-04-26T06:42:29;101444.69;;;5.51;80.58
27040;BME280;14589;51.578;7.306;2023-04-26T06:45:28;101444.50;;;5.81;80.47
27040;BME280;14589;51.578;7.306;2023-04-26T06:47:58;101443.22;;;6.00;79.66
27040;BME280;14589;51.578;7.306;2023-04-26T06:50:30;101444.59;;;6.20;78.88
27040;BME280;14589;51.578;7.306;2023-04-26T06:53:01;101451.78;;;6.46;78.65
27040;BME280;14589;51.578;7.306;2023-04-26T06:55:31;101437.69;;;6.68;77.92
27040;BME280;14589;51.578;7.306;2023-04-26T06:58:02;101441.47;;;6.91;76.97
27040;BME280;14589;51.578;7.306;2023-04-26T07:00:32;101446.22;;;7.13;76.35
27040;BME280;14589;51.578;7.306;2023-04-26T07:03:02;101443.19;;;6.92;71.14
27040;BME280;14589;51.578;7.306;2023-04-26T07:05:33;101445.50;;;7.35;73.46
27040;BME280;14589;51.578;7.306;2023-04-26T07:08:03;101445.25;;;7.63;72.60
27040;BME280;14589;51.578;7.306;2023-04-26T07:10:34;101419.75;;;7.91;71.50
27040;BME280;14589;51.578;7.306;2023-04-26T07:13:04;101432.16;;;7.69;67.24
27040;BME280;14589;51.578;7.306;2023-04-26T07:15:35;101436.03;;;8.02;68.51
27040;BME280;14589;51.578;7.306;2023-04-26T07:18:05;101437.28;;;8.09;66.38
27040;BME280;14589;51.578;7.306;2023-04-26T07:20:35;101431.25;;;8.29;66.58
27040;BME280;14589;51.578;7.306;2023-04-26T07:23:06;101426.00;;;8.15;64.83
27040;BME280;14589;51.578;7.306;2023-04-26T07:25:36;101420.47;;;8.05;64.61
27040;BME280;14589;51.578;7.306;2023-04-26T07:28:07;101433.19;;;8.03;63.79
27040;BME280;14589;51.578;7.306;2023-04-26T07:30:37;101432.13;;;7.82;64.40
27040;BME280;14589;51.578;7.306;2023-04-26T07:33:08;101417.66;;;8.07;65.31
27040;BME280;14589;51.578;7.306;2023-04-26T07:35:38;101435.22;;;8.36;64.80
27040;BME280;14589;51.578;7.306;2023-04-26T07:38:09;101430.66;;;8.72;65.14
27040;BME280;14589;51.578;7.306;2023-04-26T07:40:39;101427.25;;;8.35;62.35
27040;BME280;14589;51.578;7.306;2023-04-26T07:43:10;101434.34;;;8.71;63.76
27040;BME280;14589;51.578;7.306;2023-04-26T07:45:41;101439.34;;;8.64;62.18
27040;BME280;14589;51.578;7.306;2023-04-26T07:48:11;101426.00;;;8.63;61.36
27040;BME280;14589;51.578;7.306;2023-04-26T07:50:42;101420.56;;;8.63;61.88
27040;BME280;14589;51.578;7.306;2023-04-26T07:53:12;101423.09;;;8.99;61.25
27040;BME280;14589;51.578;7.306;2023-04-26T07:55:43;101428.22;;;8.69;58.88
27040;BME280;14589;51.578;7.306;2023-04-26T07:58:13;101428.31;;;8.67;57.31
27040;BME280;14589;51.578;7.306;2023-04-26T08:00:43;101425.03;;;8.75;58.45
27040;BME280;14589;51.578;7.306;2023-04-26T08:03:14;101426.78;;;8.98;57.15
27040;BME280;14589;51.578;7.306;2023-04-26T08:05:46;101428.75;;;9.07;58.33
27040;BME280;14589;51.578;7.306;2023-04-26T08:08:17;101414.97;;;9.32;57.62
27040;BME280;14589;51.578;7.306;2023-04-26T08:10:47;101423.09;;;9.44;57.18
27040;BME280;14589;51.578;7.306;2023-04-26T08:13:18;101427.28;;;9.25;55.93
27040;BME280;14589;51.578;7.306;2023-04-26T08:15:48;101431.44;;;9.41;56.45
27040;BME280;14589;51.578;7.306;2023-04-26T08:18:19;101425.81;;;9.44;56.60
27040;BME280;14589;51.578;7.306;2023-04-26T08:20:49;101428.25;;;9.36;54.97
27040;BME280;14589;51.578;7.306;2023-04-26T08:23:20;101427.41;;;9.13;55.76
27040;BME280;14589;51.578;7.306;2023-04-26T08:25:51;101422.22;;;9.10;55.76
27040;BME280;14589;51.578;7.306;2023-04-26T08:28:22;101411.28;;;9.22;56.46
27040;BME280;14589;51.578;7.306;2023-04-26T08:30:52;101424.94;;;9.10;56.04
27040;BME280;14589;51.578;7.306;2023-04-26T08:33:22;101429.25;;;9.12;55.95
27040;BME280;14589;51.578;7.306;2023-04-26T08:35:53;101417.78;;;9.09;54.21
27040;BME280;14589;51.578;7.306;2023-04-26T08:38:23;101425.78;;;9.21;54.38
27040;BME280;14589;51.578;7.306;2023-04-26T08:40:54;101424.56;;;9.37;53.33
27040;BME280;14589;51.578;7.306;2023-04-26T08:43:28;101422.81;;;9.58;53.62
27040;BME280;14589;51.578;7.306;2023-04-26T08:45:59;101422.00;;;9.89;53.41
27040;BME280;14589;51.578;7.306;2023-04-26T08:48:33;101421.81;;;10.13;51.62
27040;BME280;14589;51.578;7.306;2023-04-26T08:51:06;101427.53;;;10.42;51.29
27040;BME280;14589;51.578;7.306;2023-04-26T08:53:37;101426.53;;;10.84;50.29
27040;BME280;14589;51.578;7.306;2023-04-26T08:56:09;101416.16;;;11.20;48.33
27040;BME280;14589;51.578;7.306;2023-04-26T08:58:40;101417.13;;;11.49;48.05
27040;BME280;14589;51.578;7.306;2023-04-26T09:01:13;101416.19;;;11.69;46.87
27040;BME280;14589;51.578;7.306;2023-04-26T09:03:44;101427.41;;;11.86;45.92
27040;BME280;14589;51.578;7.306;2023-04-26T09:06:17;101421.63;;;11.69;43.18
27040;BME280;14589;51.578;7.306;2023-04-26T09:08:50;101417.69;;;11.93;43.90
27040;BME280;14589;51.578;7.306;2023-04-26T09:11:21;101416.13;;;12.00;43.65
27040;BME280;14589;51.578;7.306;2023-04-26T09:13:52;101405.84;;;12.32;42.76
27040;BME280;14589;51.578;7.306;2023-04-26T09:16:35;101406.56;;;12.34;41.20
27040;BME280;14589;51.578;7.306;2023-04-26T09:19:08;101409.78;;;12.86;40.59
27040;BME280;14589;51.578;7.306;2023-04-26T09:21:42;101417.97;;;12.76;39.34
27040;BME280;14589;51.578;7.306;2023-04-26T09:24:14;101417.22;;;12.84;37.51
27040;BME280;14589;51.578;7.306;2023-04-26T09:26:45;101407.97;;;13.33;38.60
27040;BME280;14589;51.578;7.306;2023-04-26T09:29:17;101415.25;;;13.60;38.58
27040;BME280;14589;51.578;7.306;2023-04-26T09:31:48;101402.94;;;13.28;37.08
27040;BME280;14589;51.578;7.306;2023-04-26T09:34:20;101422.25;;;13.45;37.71
27040;BME280;14589;51.578;7.306;2023-04-26T09:36:54;101421.59;;;13.23;37.83
27040;BME280;14589;51.578;7.306;2023-04-26T09:39:38;101410.13;;;13.10;37.95
27040;BME280;14589;51.578;7.306;2023-04-26T09:42:09;101421.94;;;12.91;37.75
27040;BME280;14589;51.578;7.306;2023-04-26T09:44:42;101414.88;;;12.52;38.71
27040;BME280;14589;51.578;7.306;2023-04-26T09:47:13;101410.84;;;12.18;40.80
27040;BME280;14589;51.578;7.306;2023-04-26T09:49:44;101417.69;;;11.83;40.11
27040;BME280;14589;51.578;7.306;2023-04-26T09:52:17;101420.63;;;11.70;41.90
27040;BME280;14589;51.578;7.306;2023-04-26T09:54:50;101430.75;;;11.59;42.62
27040;BME280;14589;51.578;7.306;2023-04-26T09:57:21;101423.50;;;11.29;42.63
27040;BME280;14589;51.578;7.306;2023-04-26T09:59:53;101423.34;;;11.30;43.46
27040;BME280;14589;51.578;7.306;2023-04-26T10:02:26;101423.44;;;11.19;43.28
27040;BME280;14589;51.578;7.306;2023-04-26T10:04:56;101424.28;;;11.20;43.42
27040;BME280;14589;51.578;7.306;2023-04-26T10:07:29;101415.38;;;11.39;43.33
27040;BME280;14589;51.578;7.306;2023-04-26T10:09:59;101410.38;;;11.34;42.61
27040;BME280;14589;51.578;7.306;2023-04-26T10:12:30;101406.44;;;11.67;43.41
27040;BME280;14589;51.578;7.306;2023-04-26T10:15:02;101396.97;;;12.01;41.91
27040;BME280;14589;51.578;7.306;2023-04-26T10:17:33;101396.25;;;12.19;42.16
27040;BME280;14589;51.578;7.306;2023-04-26T10:20:06;101401.41;;;12.31;43.41
27040;BME280;14589;51.578;7.306;2023-04-26T10:22:45;101398.25;;;12.26;40.78
27040;BME280;14589;51.578;7.306;2023-04-26T10:25:20;101394.41;;;12.19;41.39
27040;BME280;14589;51.578;7.306;2023-04-26T10:27:51;101403.66;;;11.88;40.62
27040;BME280;14589;51.578;7.306;2023-04-26T10:30:22;101399.88;;;11.29;41.33
27040;BME280;14589;51.578;7.306;2023-04-26T10:35:29;101394.78;;;11.76;40.48
27040;BME280;14589;51.578;7.306;2023-04-26T10:40:35;101403.06;;;11.74;40.44
27040;BME280;14589;51.578;7.306;2023-04-26T10:45:42;101401.44;;;11.62;41.27
27040;BME280;14589;51.578;7.306;2023-04-26T10:59:10;101386.13;;;11.61;40.38
27040;BME280;14589;51.578;7.306;2023-04-26T11:01:41;101380.22;;;11.96;40.76
27040;BME280;14589;51.578;7.306;2023-04-26T11:04:11;101382.75;;;12.75;38.84
27040;BME280;14589;51.578;7.306;2023-04-26T11:06:55;101385.03;;;13.53;37.95
27040;BME280;14589;51.578;7.306;2023-04-26T11:09:37;101377.00;;;13.97;35.81
27040;BME280;14589;51.578;7.306;2023-04-26T11:12:12;101385.28;;;14.05;35.42
27040;BME280;14589;51.578;7.306;2023-04-26T11:14:44;101378.47;;;14.27;35.70
27040;BME280;14589;51.578;7.306;2023-04-26T11:17:15;101366.34;;;14.03;35.14
27040;BME280;14589;51.578;7.306;2023-04-26T11:19:45;101363.53;;;14.13;35.14
27040;BME280;14589;51.578;7.306;2023-04-26T11:22:20;101361.69;;;14.75;35.40
27040;BME280;14589;51.578;7.306;2023-04-26T11:24:51;101361.13;;;15.23;34.38
27040;BME280;14589;51.578;7.306;2023-04-26T11:27:26;101360.19;;;15.14;33.62
27040;BME280;14589;51.578;7.306;2023-04-26T11:29:56;101361.41;;;15.12;32.73
27040;BME280;14589;51.578;7.306;2023-04-26T11:32:27;101359.81;;;15.35;32.15
27040;BME280;14589;51.578;7.306;2023-04-26T11:34:59;101361.13;;;15.23;30.57
27040;BME280;14589;51.578;7.306;2023-04-26T11:37:30;101356.81;;;15.20;31.16
27040;BME280;14589;51.578;7.306;2023-04-26T11:40:00;101372.03;;;15.23;31.92
27040;BME280;14589;51.578;7.306;2023-04-26T11:42:31;101368.63;;;14.69;31.81
27040;BME280;14589;51.578;7.306;2023-04-26T11:45:01;101372.91;;;14.72;31.84
27040;BME280;14589;51.578;7.306;2023-04-26T11:47:36;101359.53;;;13.72;32.53
27040;BME280;14589;51.578;7.306;2023-04-26T11:50:07;101368.97;;;13.77;32.76
27040;BME280;14589;51.578;7.306;2023-04-26T11:52:39;101371.63;;;13.87;33.54
27040;BME280;14589;51.578;7.306;2023-04-26T11:55:10;101367.56;;;13.91;33.46
27040;BME280;14589;51.578;7.306;2023-04-26T11:57:40;101369.28;;;13.92;33.83
27040;BME280;14589;51.578;7.306;2023-04-26T12:00:13;101359.25;;;14.10;34.10
27040;BME280;14589;51.578;7.306;2023-04-26T12:02:44;101374.28;;;13.97;34.30
27040;BME280;14589;51.578;7.306;2023-04-26T12:05:26;101364.22;;;13.97;33.62
27040;BME280;14589;51.578;7.306;2023-04-26T12:07:58;101369.84;;;13.96;33.56
27040;BME280;14589;51.578;7.306;2023-04-26T12:10:34;101370.91;;;13.85;34.81
27040;BME280;14589;51.578;7.306;2023-04-26T12:13:05;101363.59;;;13.68;34.35
27040;BME280;14589;51.578;7.306;2023-04-26T12:15:35;101364.66;;;13.57;34.93
27040;BME280;14589;51.578;7.306;2023-04-26T12:18:07;101354.91;;;13.27;35.32
27040;BME280;14589;51.578;7.306;2023-04-26T12:20:40;101361.56;;;12.69;35.46
27040;BME280;14589;51.578;7.306;2023-04-26T12:23:15;101370.31;;;11.86;36.67
27040;BME280;14589;51.578;7.306;2023-04-26T12:25:54;101367.63;;;12.34;36.83
27040;BME280;14589;51.578;7.306;2023-04-26T12:28:25;101363.88;;;12.35;37.33
27040;BME280;14589;51.578;7.306;2023-04-26T12:30:56;101359.03;;;12.38;36.67
27040;BME280;14589;51.578;7.306;2023-04-26T12:33:26;101366.22;;;12.20;38.33
27040;BME280;14589;51.578;7.306;2023-04-26T12:36:09;101362.34;;;12.32;37.13
27040;BME280;14589;51.578;7.306;2023-04-26T12:38:40;101370.06;;;12.37;38.60
27040;BME280;14589;51.578;7.306;2023-04-26T12:41:11;101365.78;;;12.34;38.03
27040;BME280;14589;51.578;7.306;2023-04-26T12:43:41;101363.78;;;12.07;38.15
27040;BME280;14589;51.578;7.306;2023-04-26T12:46:11;101371.75;;;12.47;38.58
27040;BME280;14589;51.578;7.306;2023-04-26T12:48:41;101356.44;;;12.56;37.58
27040;BME280;14589;51.578;7.306;2023-04-26T12:51:12;101368.72;;;12.70;36.79
27040;BME280;14589;51.578;7.306;2023-04-26T12:53:42;101368.88;;;12.49;37.26
27040;BME280;14589;51.578;7.306;2023-04-26T12:56:13;101377.19;;;12.57;36.26
27040;BME280;14589;51.578;7.306;2023-04-26T12:58:45;101366.22;;;12.86;36.80
27040;BME280;14589;51.578;7.306;2023-04-26T13:01:15;101370.88;;;12.47;37.25
27040;BME280;14589;51.578;7.306;2023-04-26T13:03:46;101373.31;;;12.60;37.63
27040;BME280;14589;51.578;7.306;2023-04-26T13:06:16;101373.75;;;12.55;37.18
27040;BME280;14589;51.578;7.306;2023-04-26T13:08:47;101371.75;;;13.04;37.30
27040;BME280;14589;51.578;7.306;2023-04-26T13:11:17;101372.72;;;13.22;36.19
27040;BME280;14589;51.578;7.306;2023-04-26T13:13:48;101370.91;;;13.13;36.75
27040;BME280;14589;51.578;7.306;2023-04-26T13:16:18;101365.91;;;13.35;35.55
27040;BME280;14589;51.578;7.306;2023-04-26T13:18:49;101365.44;;;13.40;34.84
27040;BME280;14589;51.578;7.306;2023-04-26T13:21:19;101356.06;;;13.97;35.41
27040;BME280;14589;51.578;7.306;2023-04-26T13:23:49;101360.72;;;13.42;33.97
27040;BME280;14589;51.578;7.306;2023-04-26T13:26:20;101363.09;;;13.27;33.59
27040;BME280;14589;51.578;7.306;2023-04-26T13:28:50;101366.88;;;14.25;33.21
27040;BME280;14589;51.578;7.306;2023-04-26T13:31:21;101372.66;;;14.39;32.45
27040;BME280;14589;51.578;7.306;2023-04-26T13:33:51;101368.13;;;14.30;33.79
27040;BME280;14589;51.578;7.306;2023-04-26T13:36:21;101356.34;;;14.30;32.99
27040;BME280;14589;51.578;7.306;2023-04-26T13:38:52;101360.97;;;14.29;32.47
27040;BME280;14589;51.578;7.306;2023-04-26T13:41:22;101361.34;;;13.99;33.28
27040;BME280;14589;51.578;7.306;2023-04-26T13:43:53;101369.16;;;14.11;33.62
27040;BME280;14589;51.578;7.306;2023-04-26T13:46:23;101366.56;;;14.10;34.07
27040;BME280;14589;51.578;7.306;2023-04-26T13:48:53;101371.16;;;14.09;34.10
27040;BME280;14589;51.578;7.306;2023-04-26T13:51:24;101371.25;;;14.00;33.44
27040;BME280;14589;51.578;7.306;2023-04-26T13:53:56;101357.38;;;13.75;32.92
27040;BME280;14589;51.578;7.306;2023-04-26T13:56:26;101360.78;;;13.95;33.30
27040;BME280;14589;51.578;7.306;2023-04-26T13:58:56;101355.75;;;14.00;33.64
27040;BME280;14589;51.578;7.306;2023-04-26T14:01:27;101357.38;;;13.75;34.16
27040;BME280;14589;51.578;7.306;2023-04-26T14:03:57;101356.94;;;13.70;34.79
27040;BME280;14589;51.578;7.306;2023-04-26T14:06:27;101356.53;;;13.93;34.41
27040;BME280;14589;51.578;7.306;2023-04-26T14:08:58;101348.84;;;14.67;33.24
27040;BME280;14589;51.578;7.306;2023-04-26T14:11:29;101344.25;;;14.76;33.49
27040;BME280;14589;51.578;7.306;2023-04-26T14:13:59;101331.47;;;14.50;33.41
27040;BME280;14589;51.578;7.306;2023-04-26T14:16:29;101346.94;;;14.24;33.23
27040;BME280;14589;51.578;7.306;2023-04-26T14:19:00;101344.28;;;13.97;33.79
27040;BME280;14589;51.578;7.306;2023-04-26T14:21:31;101344.91;;;13.73;33.85
27040;BME280;14589;51.578;7.306;2023-04-26T14:24:01;101345.84;;;13.99;33.87
27040;BME280;14589;51.578;7.306;2023-04-26T14:26:32;101347.25;;;14.03;33.53
27040;BME280;14589;51.578;7.306;2023-04-26T14:29:03;101347.13;;;13.60;34.21
27040;BME280;14589;51.578;7.306;2023-04-26T14:31:36;101354.97;;;13.45;33.48
27040;BME280;14589;51.578;7.306;2023-04-26T14:34:07;101355.91;;;13.54;33.09
27040;BME280;14589;51.578;7.306;2023-04-26T14:36:37;101348.31;;;13.57;33.57
27040;BME280;14589;51.578;7.306;2023-04-26T14:39:08;101360.88;;;13.13;33.60
27040;BME280;14589;51.578;7.306;2023-04-26T14:41:38;101351.66;;;13.24;33.73
27040;BME280;14589;51.578;7.306;2023-04-26T14:44:09;101350.38;;;13.46;34.42
27040;BME280;14589;51.578;7.306;2023-04-26T14:46:39;101350.84;;;13.59;34.75
27040;BME280;14589;51.578;7.306;2023-04-26T14:49:10;101347.22;;;13.68;33.99
27040;BME280;14589;51.578;7.306;2023-04-26T14:51:41;101337.25;;;13.76;34.60
27040;BME280;14589;51.578;7.306;2023-04-26T14:54:11;101349.94;;;13.50;33.68
27040;BME280;14589;51.578;7.306;2023-04-26T14:56:41;101350.06;;;13.76;33.86
27040;BME280;14589;51.578;7.306;2023-04-26T14:59:12;101343.50;;;13.87;33.44
27040;BME280;14589;51.578;7.306;2023-04-26T15:01:42;101350.44;;;13.81;33.71
27040;BME280;14589;51.578;7.306;2023-04-26T15:04:13;101351.84;;;13.85;33.69
27040;BME280;14589;51.578;7.306;2023-04-26T15:06:44;101330.06;;;13.58;33.74
27040;BME280;14589;51.578;7.306;2023-04-26T15:09:15;101340.06;;;13.67;33.14
27040;BME280;14589;51.578;7.306;2023-04-26T15:11:46;101333.50;;;13.60;33.97
27040;BME280;14589;51.578;7.306;2023-04-26T15:14:16;101335.22;;;13.61;35.78
27040;BME280;14589;51.578;7.306;2023-04-26T15:16:47;101330.25;;;13.56;35.08
27040;BME280;14589;51.578;7.306;2023-04-26T15:19:17;101332.41;;;13.53;34.94
27040;BME280;14589;51.578;7.306;2023-04-26T15:21:48;101324.75;;;13.39;34.80
27040;BME280;14589;51.578;7.306;2023-04-26T15:24:18;101332.00;;;13.48;35.11
27040;BME280;14589;51.578;7.306;2023-04-26T15:26:49;101328.88;;;13.43;35.11
27040;BME280;14589;51.578;7.306;2023-04-26T15:29:19;101337.75;;;13.17;35.40
27040;BME280;14589;51.578;7.306;2023-04-26T15:31:49;101331.00;;;13.21;34.89
27040;BME280;14589;51.578;7.306;2023-04-26T15:34:20;101336.44;;;13.21;35.64
27040;BME280;14589;51.578;7.306;2023-04-26T15:36:52;101339.16;;;13.21;34.93
27040;BME280;14589;51.578;7.306;2023-04-26T15:39:22;101336.16;;;13.24;36.18
27040;BME280;14589;51.578;7.306;2023-04-26T15:41:53;101332.16;;;13.09;35.62
27040;BME280;14589;51.578;7.306;2023-04-26T15:44:23;101325.31;;;13.05;35.24
27040;BME280;14589;51.578;7.306;2023-04-26T15:46:53;101328.44;;;13.10;35.55
27040;BME280;14589;51.578;7.306;2023-04-26T15:49:24;101325.25;;;13.24;35.19
27040;BME280;14589;51.578;7.306;2023-04-26T15:51:55;101325.16;;;13.44;36.16
27040;BME280;14589;51.578;7.306;2023-04-26T15:54:25;101328.31;;;13.12;34.92
27040;BME280;14589;51.578;7.306;2023-04-26T15:56:56;101325.19;;;13.34;34.58
27040;BME280;14589;51.578;7.306;2023-04-26T15:59:27;101333.84;;;13.29;34.12
27040;BME280;14589;51.578;7.306;2023-04-26T16:01:59;101336.34;;;13.41;34.48
27040;BME280;14589;51.578;7.306;2023-04-26T16:04:30;101333.91;;;13.20;34.83
27040;BME280;14589;51.578;7.306;2023-04-26T16:07:01;101326.19;;;13.06;34.51
27040;BME280;14589;51.578;7.306;2023-04-26T16:09:32;101335.38;;;13.14;34.33
27040;BME280;14589;51.578;7.306;2023-04-26T16:12:02;101338.53;;;13.00;34.55
27040;BME280;14589;51.578;7.306;2023-04-26T16:14:34;101326.25;;;12.96;34.68
27040;BME280;14589;51.578;7.306;2023-04-26T16:17:05;101317.63;;;13.01;35.51
27040;BME280;14589;51.578;7.306;2023-04-26T16:19:35;101332.88;;;13.11;34.90
27040;BME280;14589;51.578;7.306;2023-04-26T16:22:06;101333.16;;;12.81;35.72
27040;BME280;14589;51.578;7.306;2023-04-26T16:24:36;101325.19;;;12.60;35.53
27040;BME280;14589;51.578;7.306;2023-04-26T16:27:07;101327.63;;;12.53;34.91
27040;BME280;14589;51.578;7.306;2023-04-26T16:29:38;101325.22;;;12.50;35.68
27040;BME280;14589;51.578;7.306;2023-04-26T16:32:08;101336.69;;;12.35;35.98
27040;BME280;14589;51.578;7.306;2023-04-26T16:34:38;101326.66;;;12.45;36.50
27040;BME280;14589;51.578;7.306;2023-04-26T16:37:09;101318.50;;;12.35;36.14
27040;BME280;14589;51.578;7.306;2023-04-26T16:39:39;101313.94;;;12.45;35.83
27040;BME280;14589;51.578;7.306;2023-04-26T16:42:10;101330.06;;;12.56;35.60
27040;BME280;14589;51.578;7.306;2023-04-26T16:44:40;101314.09;;;12.34;36.76
27040;BME280;14589;51.578;7.306;2023-04-26T16:47:11;101325.53;;;12.28;35.66
27040;BME280;14589;51.578;7.306;2023-04-26T16:49:41;101328.25;;;12.38;37.03
27040;BME280;14589;51.578;7.306;2023-04-26T16:52:11;101326.66;;;12.35;36.21
27040;BME280;14589;51.578;7.306;2023-04-26T16:54:42;101317.81;;;12.33;37.19
27040;BME280;14589;51.578;7.306;2023-04-26T16:57:12;101321.81;;;12.29;36.15
27040;BME280;14589;51.578;7.306;2023-04-26T16:59:43;101327.69;;;12.25;36.26
27040;BME280;14589;51.578;7.306;2023-04-26T17:02:16;101331.16;;;12.27;37.20
27040;BME280;14589;51.578;7.306;2023-04-26T17:04:46;101336.41;;;12.28;36.74
27040;BME280;14589;51.578;7.306;2023-04-26T17:07:16;101323.69;;;12.19;37.26
27040;BME280;14589;51.578;7.306;2023-04-26T17:09:51;101329.44;;;11.97;37.47
27040;BME280;14589;51.578;7.306;2023-04-26T17:12:21;101337.16;;;12.01;37.69
27040;BME280;14589;51.578;7.306;2023-04-26T17:14:52;101332.56;;;11.92;37.25
27040;BME280;14589;51.578;7.306;2023-04-26T17:17:22;101333.44;;;11.83;38.51
27040;BME280;14589;51.578;7.306;2023-04-26T17:19:52;101323.53;;;11.72;39.77
27040;BME280;14589;51.578;7.306;2023-04-26T17:22:23;101339.56;;;11.75;40.15
27040;BME280;14589;51.578;7.306;2023-04-26T17:24:53;101345.00;;;11.75;40.91
27040;BME280;14589;51.578;7.306;2023-04-26T17:27:23;101336.97;;;11.64;40.37
27040;BME280;14589;51.578;7.306;2023-04-26T17:29:55;101335.06;;;11.55;40.79
27040;BME280;14589;51.578;7.306;2023-04-26T17:32:26;101337.78;;;11.46;40.87